Time;durP1;ratioP1;P1;durP2;ratioP2;P2;SDS_P1;SDS_P2;PMS_P1;PMS_P2;Temp;Humidity;BMP_temperature;BMP_pressure;BME280_temperature;BME280_humidity;BME280_pressure;Samples;Min_cycle;Max_cycle;Signal;HPM_P1;HPM_P2
2022/09/28 00:02:03;;;;;;;11.23;6.57;;;6.60;99.90;;;;;;4978756;28;20057;-72
2022/09/28 00:04:29;;;;;;;14.95;6.32;;;6.60;99.90;;;;;;4995413;28;20077;-73
2022/09/28 00:06:54;;;;;;;7.88;6.15;;;6.50;99.90;;;;;;4995269;28;20144;-72
2022/09/28 00:09:20;;;;;;;15.95;7.82;;;6.50;99.90;;;;;;4995226;28;20104;-72
2022/09/28 00:11:46;;;;;;;9.65;6.35;;;6.50;99.90;;;;;;4994971;28;20054;-72
2022/09/28 00:14:12;;;;;;;11.20;7.95;;;6.50;99.90;;;;;;4977882;28;20089;-72
2022/09/28 00:16:42;;;;;;;15.55;7.88;;;6.70;99.90;;;;;;4977479;28;20383;-71
2022/09/28 00:19:09;;;;;;;7.88;5.97;;;6.40;99.90;;;;;;4995151;28;20497;-73
2022/09/28 00:21:37;;;;;;;11.65;7.40;;;6.40;99.90;;;;;;4994748;28;20061;-71
2022/09/28 00:24:11;;;;;;;12.68;6.65;;;6.40;99.90;;;;;;4994505;28;20046;-73
2022/09/28 00:26:39;;;;;;;13.10;8.32;;;6.40;99.90;;;;;;4994288;28;20054;-72
2022/09/28 00:29:07;;;;;;;14.07;6.22;;;6.40;99.90;;;;;;4995468;28;20038;-72
2022/09/28 00:31:33;;;;;;;11.85;7.75;;;6.40;99.90;;;;;;4994554;28;20060;-72
2022/09/28 00:34:04;;;;;;;10.93;7.30;;;6.40;99.90;;;;;;4994999;28;20117;-73
2022/09/28 00:36:31;;;;;;;11.43;7.57;;;6.40;99.90;;;;;;4994548;28;20046;-72
2022/09/28 00:38:58;;;;;;;18.80;7.40;;;6.40;99.90;;;;;;4994916;28;20050;-72
2022/09/28 00:41:26;;;;;;;9.40;7.18;;;6.40;99.90;;;;;;4994863;28;20118;-74
2022/09/28 00:43:53;;;;;;;9.98;7.78;;;6.40;99.90;;;;;;4994666;28;20048;-71
2022/09/28 00:46:33;;;;;;;12.32;8.50;;;6.40;99.90;;;;;;4995155;28;20054;-71
2022/09/28 00:49:08;;;;;;;11.77;7.93;;;6.40;99.90;;;;;;4994895;28;20088;-72
2022/09/28 00:51:36;;;;;;;10.18;7.15;;;6.40;99.90;;;;;;4994734;28;20057;-73
2022/09/28 00:54:04;;;;;;;17.02;8.02;;;6.40;99.90;;;;;;4977701;28;20050;-71
2022/09/28 00:56:33;;;;;;;12.38;9.10;;;6.40;99.90;;;;;;4994810;28;20038;-72
2022/09/28 00:58:59;;;;;;;10.55;7.13;;;6.40;99.90;;;;;;4994277;28;20057;-73
2022/09/28 01:01:27;;;;;;;11.45;7.20;;;6.40;99.90;;;;;;4994850;28;20045;-72
2022/09/28 01:03:53;;;;;;;14.35;8.98;;;6.40;99.90;;;;;;4962168;28;20134;-72
2022/09/28 01:06:22;;;;;;;11.65;8.00;;;6.60;99.90;;;;;;4994548;28;20065;-71
2022/09/28 01:08:51;;;;;;;10.48;8.25;;;6.40;99.90;;;;;;4994178;28;20046;-71
2022/09/28 01:11:18;;;;;;;11.30;7.75;;;6.30;99.90;;;;;;4977921;28;20046;-71
2022/09/28 01:13:47;;;;;;;10.38;7.78;;;6.30;99.90;;;;;;4977998;28;20053;-74
2022/09/28 01:16:40;;;;;;;12.82;9.10;;;6.30;99.90;;;;;;4994741;28;20054;-72
2022/09/28 01:19:27;;;;;;;9.70;7.27;;;6.30;99.90;;;;;;4968324;28;20061;-71
2022/09/28 01:22:05;;;;;;;11.82;8.30;;;6.30;99.90;;;;;;4969226;28;20050;-72
2022/09/28 01:24:45;;;;;;;13.32;8.18;;;6.20;99.90;;;;;;4977179;28;20054;-71
2022/09/28 01:27:44;;;;;;;9.20;7.20;;;6.20;99.90;;;;;;4994453;28;20077;-72
2022/09/28 01:30:14;;;;;;;13.18;9.10;;;6.20;99.90;;;;;;4993557;28;20054;-72
2022/09/28 01:32:54;;;;;;;8.35;7.22;;;6.20;99.90;;;;;;4996870;28;20177;-74
2022/09/28 01:35:42;;;;;;;13.68;10.07;;;6.20;99.90;;;;;;4998313;28;20054;-73
2022/09/28 01:38:20;;;;;;;11.38;8.57;;;6.10;99.90;;;;;;4997828;28;20390;-75
2022/09/28 01:40:46;;;;;;;11.93;9.02;;;6.10;99.90;;;;;;4998122;28;20046;-72
2022/09/28 01:43:23;;;;;;;13.73;8.30;;;6.10;99.90;;;;;;4998381;28;20057;-72
2022/09/28 01:46:11;;;;;;;13.38;9.13;;;6.10;99.90;;;;;;4989178;28;20073;-73
2022/09/28 01:48:46;;;;;;;10.73;8.35;;;6.10;99.90;;;;;;4998498;28;20053;-74
2022/09/28 01:51:38;;;;;;;14.05;9.05;;;6.00;99.90;;;;;;4997567;28;20078;-72
2022/09/28 01:54:12;;;;;;;8.75;7.18;;;5.90;99.90;;;;;;4997596;28;20121;-72
2022/09/28 01:56:59;;;;;;;12.43;7.88;;;5.90;99.90;;;;;;4997743;28;20056;-72
2022/09/28 01:59:28;;;;;;;9.88;7.22;;;5.90;99.90;;;;;;4997475;28;20089;-72
2022/09/28 02:01:57;;;;;;;10.05;8.18;;;5.80;99.90;;;;;;4980299;28;20100;-72
2022/09/28 02:04:30;;;;;;;12.38;8.23;;;5.80;99.90;;;;;;4997629;28;20088;-72
2022/09/28 02:07:10;;;;;;;11.50;6.90;;;5.80;99.90;;;;;;4997475;28;20046;-72
2022/09/28 02:09:54;;;;;;;11.63;7.85;;;5.70;99.90;;;;;;4998075;28;20054;-72
2022/09/28 02:12:44;;;;;;;11.80;7.28;;;5.70;99.90;;;;;;4996976;28;20054;-71
2022/09/28 02:15:19;;;;;;;11.38;8.55;;;5.70;99.90;;;;;;4947412;28;20081;-72
2022/09/28 02:17:45;;;;;;;14.10;9.52;;;5.70;99.90;;;;;;4979417;28;20050;-73
2022/09/28 02:20:11;;;;;;;16.85;9.85;;;5.80;99.90;;;;;;4996724;28;20435;-74
2022/09/28 02:22:58;;;;;;;16.35;9.38;;;5.90;99.90;;;;;;4997860;28;20050;-73
2022/09/28 02:25:41;;;;;;;19.95;11.55;;;6.00;99.90;;;;;;4973368;28;20065;-71
2022/09/28 02:28:10;;;;;;;19.73;12.98;;;6.10;99.90;;;;;;4997484;28;20092;-73
2022/09/28 02:30:38;;;;;;;27.95;15.02;;;6.10;99.90;;;;;;4995987;28;20049;-73
2022/09/28 02:33:18;;;;;;;50.10;15.55;;;6.20;99.90;;;;;;4996993;28;20061;-72
2022/09/28 02:35:44;;;;;;;32.22;15.18;;;6.30;99.90;;;;;;4974911;28;20053;-71
2022/09/28 02:38:12;;;;;;;96.05;21.13;;;6.40;99.90;;;;;;4978686;28;20046;-72
2022/09/28 02:40:38;;;;;;;42.28;16.77;;;6.50;99.90;;;;;;4997005;28;20125;-71
2022/09/28 02:43:18;;;;;;;40.25;17.42;;;6.60;99.90;;;;;;4996782;28;20053;-72
2022/09/28 02:46:07;;;;;;;43.72;18.70;;;6.60;99.90;;;;;;4992303;28;20042;-72
2022/09/28 02:48:59;;;;;;;49.90;19.67;;;6.70;99.90;;;;;;4980151;28;20431;-73
2022/09/28 02:51:42;;;;;;;56.03;18.48;;;6.80;99.90;;;;;;4996726;28;20100;-72
2022/09/28 02:54:23;;;;;;;89.25;24.55;;;6.90;99.90;;;;;;4976345;28;20043;-73
2022/09/28 02:57:07;;;;;;;126.50;26.83;;;7.00;99.90;;;;;;4990841;28;20155;-71
2022/09/28 02:59:45;;;;;;;146.75;29.10;;;6.90;99.90;;;;;;4979050;28;20057;-72
2022/09/28 03:02:17;;;;;;;71.05;18.75;;;6.90;99.90;;;;;;4996674;28;20054;-71
2022/09/28 03:04:48;;;;;;;114.18;22.95;;;6.90;99.90;;;;;;4996450;28;20046;-73
2022/09/28 03:07:25;;;;;;;143.85;26.98;;;6.90;99.90;;;;;;4996201;28;20050;-74
2022/09/28 03:10:09;;;;;;;56.83;18.90;;;6.90;99.90;;;;;;4993170;28;20383;-72
2022/09/28 03:12:37;;;;;;;59.25;17.98;;;6.90;99.90;;;;;;4986373;28;20080;-71
2022/09/28 03:15:12;;;;;;;75.07;17.90;;;6.90;99.90;;;;;;4996431;28;20054;-73
2022/09/28 03:17:37;;;;;;;29.67;14.45;;;6.90;99.90;;;;;;4987418;28;20467;-72
2022/09/28 03:20:04;;;;;;;55.50;16.52;;;6.90;99.90;;;;;;4995901;28;20057;-71
2022/09/28 03:22:29;;;;;;;53.88;15.35;;;7.00;99.90;;;;;;4995547;28;20484;-73
2022/09/28 03:24:55;;;;;;;91.47;19.50;;;7.00;99.90;;;;;;4996269;28;20049;-73
2022/09/28 03:27:21;;;;;;;98.20;18.65;;;7.00;99.90;;;;;;4995970;28;20144;-74
2022/09/28 03:29:47;;;;;;;95.93;19.58;;;6.90;99.90;;;;;;4995625;28;20042;-74
2022/09/28 03:32:12;;;;;;;46.33;13.88;;;6.90;99.90;;;;;;4995949;28;20043;-72
2022/09/28 03:34:38;;;;;;;74.82;14.88;;;6.90;99.90;;;;;;4995820;28;20081;-72
2022/09/28 03:37:03;;;;;;;118.30;20.15;;;6.90;99.90;;;;;;4995989;28;20415;-72
2022/09/28 03:39:29;;;;;;;107.30;19.80;;;6.90;99.90;;;;;;4996167;28;20042;-72
2022/09/28 03:41:55;;;;;;;87.00;18.67;;;6.90;99.90;;;;;;4996009;28;20452;-71
2022/09/28 03:44:21;;;;;;;43.65;13.88;;;7.00;99.90;;;;;;4999763;28;20177;-72
2022/09/28 03:46:46;;;;;;;142.93;24.77;;;6.90;99.90;;;;;;4998753;28;20444;-72
2022/09/28 03:49:12;;;;;;;34.20;13.27;;;6.90;99.90;;;;;;4993044;28;20046;-73
2022/09/28 03:51:37;;;;;;;31.23;12.70;;;6.80;99.90;;;;;;4978707;28;20054;-73
2022/09/28 03:54:04;;;;;;;51.38;14.18;;;6.90;99.90;;;;;;4994933;28;20052;-72
2022/09/28 03:56:29;;;;;;;38.15;14.20;;;6.90;99.90;;;;;;4995547;28;20054;-74
2022/09/28 03:58:55;;;;;;;90.28;18.88;;;6.90;99.90;;;;;;4998261;28;20054;-71
2022/09/28 04:01:20;;;;;;;71.22;17.38;;;6.90;99.90;;;;;;4978445;28;20046;-73
2022/09/28 04:03:51;;;;;;;49.08;15.30;;;6.90;99.90;;;;;;4996106;28;20030;-70
2022/09/28 04:06:17;;;;;;;55.28;14.43;;;6.90;99.90;;;;;;4995476;28;20514;-73
2022/09/28 04:08:42;;;;;;;66.10;15.35;;;6.90;99.90;;;;;;4994708;28;20089;-72
2022/09/28 04:11:08;;;;;;;74.65;16.88;;;6.80;99.90;;;;;;4978645;28;20383;-72
2022/09/28 04:13:33;;;;;;;55.38;15.07;;;6.80;99.90;;;;;;4995503;28;20054;-72
2022/09/28 04:16:00;;;;;;;52.05;14.40;;;6.80;99.90;;;;;;4978334;28;20065;-72
2022/09/28 04:18:26;;;;;;;121.72;18.48;;;6.80;99.90;;;;;;4996194;28;20054;-72
2022/09/28 04:21:10;;;;;;;69.13;15.80;;;6.80;99.90;;;;;;4995284;28;20124;-72
2022/09/28 04:23:38;;;;;;;114.13;20.00;;;6.70;99.90;;;;;;4995363;28;20436;-71
2022/09/28 04:26:06;;;;;;;83.95;18.08;;;6.70;99.90;;;;;;4995206;28;20050;-71
2022/09/28 04:31:21;;;;;;;58.30;16.35;;;6.70;99.90;;;;;;4995378;28;20050;-72
2022/09/28 04:33:46;;;;;;;54.20;15.55;;;6.70;99.90;;;;;;4995947;28;20046;-73
2022/09/28 04:36:12;;;;;;;96.95;20.10;;;6.70;99.90;;;;;;4995825;28;20085;-73
2022/09/28 04:38:38;;;;;;;96.18;22.42;;;6.70;99.90;;;;;;4995536;28;20046;-70
2022/09/28 04:41:04;;;;;;;84.90;17.75;;;6.70;99.90;;;;;;4994627;28;20522;-72
2022/09/28 04:43:30;;;;;;;89.00;18.90;;;6.70;99.90;;;;;;4995072;28;20162;-72
2022/09/28 04:46:00;;;;;;;64.47;16.00;;;6.70;99.90;;;;;;4995481;28;20050;-73
2022/09/28 04:48:26;;;;;;;85.90;20.35;;;6.70;99.90;;;;;;4978695;28;20050;-71
2022/09/28 04:50:56;;;;;;;73.88;17.17;;;6.90;99.90;;;;;;4995310;28;20042;-71
2022/09/28 04:53:22;;;;;;;70.25;16.50;;;6.70;99.90;;;;;;4995275;28;20348;-71
2022/09/28 04:56:03;;;;;;;90.95;16.08;;;6.70;99.90;;;;;;4995234;28;20054;-73
2022/09/28 04:58:29;;;;;;;145.35;24.05;;;6.60;99.90;;;;;;4995383;28;20110;-71
2022/09/28 05:01:05;;;;;;;97.82;20.08;;;6.60;99.90;;;;;;4978365;28;20487;-72
2022/09/28 05:03:31;;;;;;;143.57;23.33;;;6.60;99.90;;;;;;4995318;28;20058;-73
2022/09/28 05:05:57;;;;;;;49.00;16.10;;;6.60;99.90;;;;;;4980209;28;20054;-71
2022/09/28 05:08:23;;;;;;;75.18;15.73;;;6.60;99.90;;;;;;4999212;28;20038;-73
2022/09/28 05:10:58;;;;;;;54.30;15.90;;;6.60;99.90;;;;;;4999221;28;20078;-72
2022/09/28 05:13:24;;;;;;;105.35;20.58;;;6.50;99.90;;;;;;4979971;28;20130;-70
2022/09/28 05:15:55;;;;;;;82.97;19.77;;;6.50;99.90;;;;;;4979639;28;20486;-74
2022/09/28 05:18:21;;;;;;;113.75;21.40;;;6.60;99.90;;;;;;4979315;28;20057;-73
2022/09/28 05:20:46;;;;;;;63.95;16.88;;;6.60;99.90;;;;;;4979139;28;20055;-73
2022/09/28 05:23:12;;;;;;;75.15;18.10;;;6.60;99.90;;;;;;4978686;28;20085;-73
2022/09/28 05:25:38;;;;;;;120.60;23.60;;;6.50;99.90;;;;;;4963147;28;20046;-71
2022/09/28 05:28:05;;;;;;;60.95;17.30;;;6.50;99.90;;;;;;4998232;28;20049;-71
2022/09/28 05:30:31;;;;;;;96.25;18.83;;;6.50;99.90;;;;;;4981471;28;20472;-71
2022/09/28 05:32:57;;;;;;;127.20;24.10;;;6.50;99.90;;;;;;4998649;28;20105;-72
2022/09/28 05:35:22;;;;;;;115.72;21.10;;;6.50;99.90;;;;;;4998523;28;20050;-71
2022/09/28 05:37:48;;;;;;;101.15;20.60;;;6.50;99.90;;;;;;4998930;28;20050;-72
2022/09/28 05:40:14;;;;;;;56.60;16.35;;;6.50;99.90;;;;;;4998548;28;20447;-73
2022/09/28 05:42:40;;;;;;;68.72;17.75;;;6.60;99.90;;;;;;4998480;28;20416;-73
2022/09/28 05:45:07;;;;;;;56.95;17.77;;;6.60;99.90;;;;;;4998469;28;20082;-71
2022/09/28 05:47:40;;;;;;;54.63;18.77;;;6.60;99.90;;;;;;4997953;28;20537;-72
2022/09/28 05:50:10;;;;;;;132.30;23.25;;;6.70;99.90;;;;;;4998339;28;20050;-72
2022/09/28 05:52:36;;;;;;;109.05;21.88;;;6.70;99.90;;;;;;4998608;28;20100;-71
2022/09/28 05:55:02;;;;;;;48.30;17.48;;;6.70;99.90;;;;;;4981191;28;20493;-72
2022/09/28 05:57:28;;;;;;;48.95;16.35;;;6.70;99.90;;;;;;4997825;28;20038;-73
2022/09/28 05:59:55;;;;;;;55.53;17.40;;;6.70;99.90;;;;;;4997580;28;20448;-72
2022/09/28 06:02:20;;;;;;;37.97;15.20;;;6.70;99.90;;;;;;4998539;28;20133;-72
2022/09/28 06:04:48;;;;;;;82.60;17.33;;;6.70;99.90;;;;;;4981471;28;20128;-72
2022/09/28 06:07:14;;;;;;;46.75;14.50;;;6.80;99.90;;;;;;4998187;28;20129;-73
2022/09/28 06:09:39;;;;;;;123.10;22.02;;;6.80;99.90;;;;;;4998007;28;20189;-71
2022/09/28 06:12:05;;;;;;;47.10;15.70;;;6.80;99.90;;;;;;4997955;28;20046;-70
2022/09/28 06:14:31;;;;;;;78.10;18.23;;;6.80;99.90;;;;;;4997920;28;20050;-72
2022/09/28 06:16:56;;;;;;;100.35;17.88;;;6.90;99.90;;;;;;4997893;28;20065;-73
2022/09/28 06:19:22;;;;;;;69.20;16.92;;;6.80;99.90;;;;;;4980586;28;20372;-73
2022/09/28 06:21:47;;;;;;;49.55;15.20;;;6.90;99.90;;;;;;4997963;28;20062;-71
2022/09/28 06:24:13;;;;;;;50.65;14.90;;;6.90;99.90;;;;;;4997981;28;20049;-71
2022/09/28 06:26:39;;;;;;;73.80;18.40;;;6.90;99.90;;;;;;4997324;28;20053;-72
2022/09/28 06:29:04;;;;;;;139.45;20.63;;;6.90;99.90;;;;;;4997871;28;20046;-72
2022/09/28 06:31:30;;;;;;;114.88;21.67;;;7.00;99.90;;;;;;4998058;28;20053;-72
2022/09/28 06:33:56;;;;;;;72.97;14.25;;;7.00;99.90;;;;;;4980815;28;20057;-72
2022/09/28 06:36:22;;;;;;;94.43;18.65;;;7.00;99.90;;;;;;4980657;28;20069;-72
2022/09/28 06:38:48;;;;;;;145.82;19.88;;;7.10;99.90;;;;;;4997754;28;20042;-73
2022/09/28 06:41:14;;;;;;;56.13;13.75;;;7.00;99.90;;;;;;4997263;28;20046;-73
2022/09/28 06:43:39;;;;;;;163.93;23.23;;;7.00;99.90;;;;;;4980010;28;20058;-72
2022/09/28 06:46:07;;;;;;;135.80;22.33;;;7.00;99.90;;;;;;4997827;28;20351;-72
2022/09/28 06:48:32;;;;;;;95.15;18.40;;;7.10;99.90;;;;;;4997264;28;20130;-73
2022/09/28 06:50:59;;;;;;;64.00;15.77;;;7.10;99.90;;;;;;4979908;28;20162;-72
2022/09/28 06:53:27;;;;;;;130.32;22.67;;;7.20;99.90;;;;;;4997523;28;20042;-72
2022/09/28 06:55:53;;;;;;;97.18;19.95;;;7.40;99.90;;;;;;4996895;28;20129;-72
2022/09/28 06:58:19;;;;;;;68.32;17.35;;;7.50;99.90;;;;;;4996877;28;20077;-72
2022/09/28 07:00:46;;;;;;;101.70;19.02;;;7.60;99.90;;;;;;4996796;28;20121;-71
2022/09/28 07:03:14;;;;;;;67.40;14.73;;;7.60;99.90;;;;;;4997040;28;20038;-74
2022/09/28 07:05:43;;;;;;;129.95;17.90;;;7.70;99.90;;;;;;4997279;28;20139;-72
2022/09/28 07:08:08;;;;;;;110.57;19.52;;;7.70;99.90;;;;;;4997051;28;20116;-72
2022/09/28 07:10:34;;;;;;;75.43;14.45;;;7.80;99.90;;;;;;4979839;28;20448;-72
2022/09/28 07:13:03;;;;;;;107.90;15.30;;;7.90;99.90;;;;;;4996580;28;20046;-73
2022/09/28 07:15:30;;;;;;;105.53;16.02;;;7.90;99.90;;;;;;4997274;28;20047;-72
2022/09/28 07:17:57;;;;;;;120.50;19.50;;;8.00;99.90;;;;;;4996754;28;20089;-72
2022/09/28 07:20:24;;;;;;;95.97;14.35;;;8.10;99.90;;;;;;4996375;28;20108;-71
2022/09/28 07:22:58;;;;;;;73.40;14.65;;;8.20;99.90;;;;;;4996926;28;20419;-72
2022/09/28 07:25:24;;;;;;;56.38;14.00;;;8.30;99.90;;;;;;4996067;28;20129;-71
2022/09/28 07:27:54;;;;;;;88.97;13.15;;;8.30;99.90;;;;;;4996140;28;20039;-72
2022/09/28 07:30:20;;;;;;;44.38;12.98;;;8.40;99.90;;;;;;4978628;28;20112;-72
2022/09/28 07:32:47;;;;;;;63.67;14.20;;;8.50;99.90;;;;;;4996411;28;20402;-71
2022/09/28 07:35:13;;;;;;;75.68;14.77;;;8.60;99.90;;;;;;4996360;28;20042;-72
2022/09/28 07:37:38;;;;;;;32.08;12.50;;;8.60;99.90;;;;;;4996438;28;20042;-73
2022/09/28 07:42:50;;;;;;;48.95;14.45;;;8.90;99.90;;;;;;4995912;28;20070;-71
2022/09/28 07:45:16;;;;;;;75.78;14.10;;;9.10;99.90;;;;;;4996232;28;20375;-72
2022/09/28 07:47:42;;;;;;;72.72;12.55;;;9.20;99.90;;;;;;4996297;28;20042;-72
2022/09/28 07:50:08;;;;;;;23.45;10.43;;;9.50;99.90;;;;;;4996046;28;20112;-72
2022/09/28 07:52:35;;;;;;;26.63;8.85;;;9.30;99.90;;;;;;4996194;28;20448;-71
2022/09/28 07:55:01;;;;;;;24.85;9.93;;;9.50;99.90;;;;;;4995637;28;20136;-72
2022/09/28 07:57:27;;;;;;;26.05;11.38;;;9.50;99.90;;;;;;4973382;28;20499;-73
2022/09/28 07:59:53;;;;;;;58.72;13.57;;;9.50;99.90;;;;;;4976798;28;20034;-72
2022/09/28 08:02:20;;;;;;;26.58;10.65;;;9.70;99.90;;;;;;4976701;28;20535;-72
2022/09/28 08:04:49;;;;;;;34.08;11.75;;;9.90;99.90;;;;;;4987376;28;20046;-74
2022/09/28 08:07:16;;;;;;;23.20;10.48;;;10.00;99.90;;;;;;4996214;28;20042;-74
2022/09/28 08:09:43;;;;;;;34.20;12.52;;;10.10;99.90;;;;;;4995798;28;20056;-72
2022/09/28 08:12:09;;;;;;;23.13;10.38;;;10.20;99.90;;;;;;4995790;28;20143;-72
2022/09/28 08:14:36;;;;;;;35.17;10.43;;;10.20;99.90;;;;;;4996007;28;20126;-71
2022/09/28 08:17:03;;;;;;;21.58;10.65;;;10.40;99.90;;;;;;4978254;28;20046;-71
2022/09/28 08:21:43;;;;;;;22.70;10.85;;;10.30;99.90;;;;;;4978057;28;20419;-71
2022/09/28 08:22:17;;;;;;;14.43;8.13;;;10.30;99.90;;;;;;4995552;28;20466;-73
2022/09/28 08:24:43;;;;;;;36.65;10.02;;;10.30;99.90;;;;;;4978650;28;20523;-71
2022/09/28 08:27:09;;;;;;;20.65;9.13;;;10.20;99.90;;;;;;4995934;28;20085;-71
2022/09/28 08:29:35;;;;;;;21.15;8.90;;;10.30;99.90;;;;;;4995508;28;20097;-73
2022/09/28 08:32:02;;;;;;;15.73;10.00;;;10.40;99.90;;;;;;4995310;28;20042;-73
2022/09/28 08:34:27;;;;;;;17.85;10.25;;;10.60;99.90;;;;;;4995443;28;20104;-72
2022/09/28 08:36:56;;;;;;;22.70;8.57;;;10.90;99.90;;;;;;4995573;28;20451;-72
2022/09/28 08:39:22;;;;;;;10.60;8.10;;;11.10;99.90;;;;;;4995494;28;20130;-72
2022/09/28 08:41:49;;;;;;;10.50;8.23;;;11.20;99.90;;;;;;4995138;28;20078;-72
2022/09/28 08:44:22;;;;;;;9.57;7.45;;;11.20;99.90;;;;;;4995368;28;20113;-72
2022/09/28 08:46:55;;;;;;;10.55;8.85;;;11.20;99.90;;;;;;4995313;28;20529;-71
2022/09/28 08:49:37;;;;;;;10.20;8.23;;;11.20;99.90;;;;;;4976950;28;20082;-72
2022/09/28 08:52:09;;;;;;;10.18;8.43;;;11.30;99.90;;;;;;4995654;28;20050;-72
2022/09/28 08:54:56;;;;;;;8.93;7.22;;;11.60;99.90;;;;;;4995455;28;20054;-71
2022/09/28 08:57:47;;;;;;;10.27;8.60;;;11.80;99.90;;;;;;4995303;28;20046;-72
2022/09/28 09:00:44;;;;;;;10.38;8.48;;;11.90;99.90;;;;;;4995303;28;20082;-73
2022/09/28 09:03:34;;;;;;;9.10;7.70;;;11.90;99.90;;;;;;4969295;28;20133;-73
2022/09/28 09:06:08;;;;;;;8.13;6.28;;;11.90;99.90;;;;;;4995105;28;20066;-72
2022/09/28 09:09:01;;;;;;;9.63;7.88;;;11.90;99.90;;;;;;4995352;28;20038;-72
2022/09/28 09:11:43;;;;;;;8.32;6.40;;;11.90;99.90;;;;;;4995195;28;20042;-72
2022/09/28 09:14:24;;;;;;;8.98;7.28;;;12.00;99.90;;;;;;4978521;28;20374;-71
2022/09/28 09:17:39;;;;;;;8.30;6.75;;;12.10;99.90;;;;;;4995368;28;20367;-71
2022/09/28 09:20:17;;;;;;;7.65;5.55;;;12.40;99.90;;;;;;4916161;29;20040;-73
2022/09/28 09:23:07;;;;;;;8.57;6.72;;;12.50;99.90;;;;;;4909472;29;20062;-72
2022/09/28 09:25:38;;;;;;;7.82;5.50;;;12.40;99.90;;;;;;4963302;28;20062;-72
2022/09/28 09:28:16;;;;;;;8.52;6.63;;;12.40;99.90;;;;;;4958679;28;20456;-73
2022/09/28 09:30:54;;;;;;;9.90;7.80;;;12.30;99.90;;;;;;4975201;28;20047;-72
2022/09/28 09:33:33;;;;;;;9.48;7.38;;;12.20;99.90;;;;;;4969846;28;20050;-72
2022/09/28 09:36:36;;;;;;;8.82;6.65;;;12.20;99.90;;;;;;4994920;28;20494;-72
2022/09/28 09:39:35;;;;;;;8.63;6.70;;;12.20;99.90;;;;;;4995126;28;20129;-73
2022/09/28 09:42:16;;;;;;;8.27;6.00;;;12.10;99.90;;;;;;4995088;28;20046;-73
2022/09/28 09:45:01;;;;;;;6.40;5.68;;;12.10;99.90;;;;;;4995198;28;20073;-73
2022/09/28 09:47:36;;;;;;;7.47;5.78;;;12.10;99.90;;;;;;4994402;28;20121;-73
2022/09/28 09:50:11;;;;;;;10.00;7.00;;;12.30;99.90;;;;;;4994797;28;20065;-72
2022/09/28 09:52:54;;;;;;;6.40;5.05;;;12.10;99.90;;;;;;4995722;28;20112;-72
2022/09/28 09:55:26;;;;;;;8.73;6.65;;;12.20;99.90;;;;;;4998399;28;20073;-72
2022/09/28 09:58:10;;;;;;;11.82;7.22;;;12.20;99.90;;;;;;4998351;28;20039;-72
2022/09/28 10:00:45;;;;;;;8.88;7.20;;;12.20;99.90;;;;;;4998273;28;20084;-73
2022/09/28 10:03:30;;;;;;;7.60;5.70;;;12.20;99.90;;;;;;4997915;28;20449;-72
2022/09/28 10:06:00;;;;;;;11.55;6.10;;;12.30;99.90;;;;;;4998411;28;20042;-73
2022/09/28 10:08:28;;;;;;;6.85;5.40;;;12.30;99.90;;;;;;4998386;28;20054;-73
2022/09/28 10:11:08;;;;;;;8.95;5.85;;;12.40;99.90;;;;;;4998065;28;20050;-72
2022/09/28 10:13:34;;;;;;;6.47;4.93;;;12.40;99.90;;;;;;4998253;28;20039;-72
2022/09/28 10:16:00;;;;;;;7.88;6.97;;;12.60;99.90;;;;;;4981049;28;20471;-71
2022/09/28 10:18:26;;;;;;;6.05;4.90;;;12.40;99.90;;;;;;4997854;28;20534;-73
2022/09/28 10:20:52;;;;;;;6.68;4.47;;;12.40;99.90;;;;;;4997620;28;20055;-72
2022/09/28 10:23:26;;;;;;;5.88;4.63;;;12.40;99.90;;;;;;4997978;28;20048;-72
2022/09/28 10:25:58;;;;;;;6.47;5.07;;;12.40;99.90;;;;;;4997943;28;20046;-72
2022/09/28 10:28:34;;;;;;;5.55;3.75;;;12.50;99.90;;;;;;4997777;28;20057;-71
2022/09/28 10:31:19;;;;;;;8.82;4.30;;;12.60;99.90;;;;;;4997424;28;20501;-71
2022/09/28 10:33:45;;;;;;;6.65;4.22;;;12.70;99.90;;;;;;4979578;28;20050;-71
2022/09/28 10:36:11;;;;;;;4.97;3.60;;;12.90;99.90;;;;;;4997638;28;20037;-72
2022/09/28 10:38:37;;;;;;;4.00;3.05;;;13.00;99.90;;;;;;4997841;28;20050;-72
2022/09/28 10:41:10;;;;;;;4.32;2.95;;;13.10;99.90;;;;;;4997551;28;20116;-72
2022/09/28 10:43:37;;;;;;;;;;;13.30;99.90;;;;;;4997761;28;20104;-72
2022/09/28 10:46:20;;;;;;;5.05;3.08;;;13.30;99.90;;;;;;4997620;28;19922;-73
2022/09/28 10:49:01;;;;;;;6.18;2.90;;;13.50;99.90;;;;;;4978103;28;20055;-71
2022/09/28 10:52:02;;;;;;;3.63;2.45;;;13.50;99.90;;;;;;4977840;28;20043;-73
2022/09/28 10:54:30;;;;;;;4.18;2.67;;;13.80;99.90;;;;;;4900075;29;20079;-72
2022/09/28 10:56:57;;;;;;;3.92;2.38;;;13.90;99.90;;;;;;4962035;28;20063;-71
2022/09/28 10:59:29;;;;;;;3.92;2.60;;;14.00;99.90;;;;;;4977430;28;20125;-72
2022/09/28 11:02:00;;;;;;;3.63;2.05;;;13.90;99.90;;;;;;4985251;28;20125;-73
2022/09/28 11:04:28;;;;;;;3.42;2.00;;;13.90;99.90;;;;;;4980081;28;20108;-72
2022/09/28 11:06:57;;;;;;;3.58;2.30;;;13.90;99.90;;;;;;4997037;28;20046;-71
2022/09/28 11:09:29;;;;;;;4.50;2.38;;;13.80;99.90;;;;;;4997144;28;20050;-72
2022/09/28 11:11:58;;;;;;;4.25;1.98;;;13.90;99.90;;;;;;4996901;28;20055;-74
2022/09/28 11:14:34;;;;;;;3.08;1.75;;;14.00;99.90;;;;;;4997237;28;20329;-73
2022/09/28 11:17:16;;;;;;;3.95;2.58;;;14.10;99.90;;;;;;4969701;28;20065;-72
2022/09/28 11:19:42;;;;;;;3.78;2.38;;;14.30;99.90;;;;;;4981290;28;20141;-72
2022/09/28 11:22:35;;;;;;;3.58;2.17;;;14.30;99.90;;;;;;4996229;28;20062;-73
2022/09/28 11:25:15;;;;;;;4.78;2.30;;;14.50;99.90;;;;;;4975321;28;20462;-71
2022/09/28 11:27:51;;;;;;;10.77;2.13;;;14.50;99.90;;;;;;4997034;28;20046;-71
2022/09/28 11:30:32;;;;;;;3.30;1.85;;;14.40;99.90;;;;;;4996865;28;20085;-73
2022/09/28 11:33:17;;;;;;;2.55;1.38;;;14.40;99.90;;;;;;4996524;28;20049;-72
2022/09/28 11:36:02;;;;;;;2.72;1.00;;;14.20;99.90;;;;;;4996878;28;20328;-72
2022/09/28 11:38:44;;;;;;;3.20;1.38;;;14.00;99.90;;;;;;4963419;28;20493;-73
2022/09/28 11:41:37;;;;;;;3.30;1.35;;;14.00;99.90;;;;;;4996463;28;20093;-72
2022/09/28 11:44:34;;;;;;;2.58;1.08;;;14.20;99.90;;;;;;4996160;28;20395;-72
2022/09/28 11:47:21;;;;;;;3.55;1.20;;;14.50;99.90;;;;;;4963255;28;20078;-71
2022/09/28 11:50:00;;;;;;;4.05;1.05;;;14.60;99.90;;;;;;4987679;28;20042;-71
2022/09/28 11:52:47;;;;;;;2.15;1.10;;;14.60;99.90;;;;;;4959667;28;20443;-72
2022/09/28 11:55:15;;;;;;;3.03;1.02;;;14.60;99.90;;;;;;4943466;28;20058;-71
2022/09/28 11:57:45;;;;;;;3.20;1.10;;;14.60;99.90;;;;;;4976806;28;20054;-73
2022/09/28 12:00:15;;;;;;;1.98;1.10;;;14.70;99.90;;;;;;4976869;28;20042;-71
2022/09/28 12:02:40;;;;;;;3.17;1.25;;;14.80;99.90;;;;;;4976837;28;20047;-72
2022/09/28 12:05:06;;;;;;;2.00;0.90;;;14.90;99.90;;;;;;4971620;28;20039;-72
2022/09/28 12:07:53;;;;;;;2.50;1.35;;;15.00;99.90;;;;;;4995813;28;20046;-72
2022/09/28 12:10:24;;;;;;;3.08;1.30;;;14.90;99.90;;;;;;4995784;28;20042;-72
2022/09/28 12:13:26;;;;;;;3.28;1.40;;;15.00;99.90;;;;;;4978963;28;20086;-72
2022/09/28 12:16:28;;;;;;;2.13;1.25;;;15.10;99.90;;;;;;4962681;28;20128;-72
2022/09/28 12:19:15;;;;;;;2.67;1.10;;;15.00;99.90;;;;;;4980030;28;20459;-71
2022/09/28 12:21:53;;;;;;;5.13;1.17;;;15.10;99.90;;;;;;4995286;28;20062;-72
2022/09/28 12:24:41;;;;;;;2.60;0.90;;;15.10;99.90;;;;;;4995922;28;20112;-71
2022/09/28 12:27:13;;;;;;;1.70;0.80;;;15.10;99.90;;;;;;4995909;28;20387;-72
2022/09/28 12:29:47;;;;;;;2.78;1.00;;;15.10;99.90;;;;;;4995595;28;20050;-74
2022/09/28 12:32:34;;;;;;;2.03;1.05;;;15.20;99.90;;;;;;4995215;28;20125;-71
2022/09/28 12:35:01;;;;;;;1.60;0.80;;;15.20;99.90;;;;;;4983818;28;20047;-71
2022/09/28 12:37:58;;;;;;;1.15;0.82;;;15.10;99.90;;;;;;4976247;28;20052;-72
2022/09/28 12:40:55;;;;;;;4.60;1.98;;;15.10;99.90;;;;;;4959511;28;20046;-71
2022/09/28 12:43:53;;;;;;;2.83;1.30;;;15.20;99.90;;;;;;4975032;28;20090;-71
2022/09/28 12:46:33;;;;;;;2.33;1.23;;;15.20;99.90;;;;;;4975986;28;20054;-72
2022/09/28 12:49:28;;;;;;;1.65;0.80;;;15.20;99.90;;;;;;4976537;28;20058;-74
2022/09/28 12:51:59;;;;;;;3.28;0.93;;;15.10;99.90;;;;;;4930337;28;20058;-73
2022/09/28 12:54:37;;;;;;;1.85;1.17;;;14.90;99.90;;;;;;4976430;28;20046;-72
2022/09/28 12:57:35;;;;;;;3.35;1.02;;;14.90;99.90;;;;;;4958667;28;20046;-71
2022/09/28 13:00:07;;;;;;;3.15;1.20;;;14.80;99.90;;;;;;4976244;28;20165;-73
2022/09/28 13:02:50;;;;;;;1.80;0.93;;;14.70;99.90;;;;;;4975603;28;20047;-73
2022/09/28 13:05:28;;;;;;;;;;;14.70;99.90;;;;;;4989086;28;20042;-73
2022/09/28 13:07:59;;;;;;;6.38;1.17;;;14.60;99.90;;;;;;4995253;28;20023;-73
2022/09/28 13:10:34;;;;;;;1.60;0.93;;;14.60;99.90;;;;;;4995198;28;20047;-74
2022/09/28 13:12:59;;;;;;;1.55;0.90;;;14.50;99.90;;;;;;4995308;28;20046;-73
2022/09/28 13:15:34;;;;;;;2.95;1.13;;;14.50;99.90;;;;;;4976577;28;20058;-72